Terminal Aerodrome Forecast
Issued by NWS Albany, NY

Home | Current Version | Previous Version | Text Only | Print | Product List | Glossary On
Versions: 1 2 3 4 5 6 7 8 9 10 11 12 13 14
000
FTUS41 KALY 010500
TAFGFL
TAF
KGFL 010532Z 0106/0206 03005KT P6SM VCSH OVC050
     FM011600 01008KT P6SM -SHRA OVC035
     FM011900 01008KT 6SM -SHRA OVC030
     FM012200 01008G14KT 5SM -SHRA OVC025
     FM020200 36010G15KT 5SM -SHRASN OVC025
     FM020500 33012G18KT P6SM -SHSN OVC030=

USA.gov is the U.S. government's official web portal to all federal, state and local government web resources and services.